Time;durP1;ratioP1;P1;durP2;ratioP2;P2;SDS_P1;SDS_P2;PMS_P1;PMS_P2;Temp;Humidity;BMP_temperature;BMP_pressure;BME280_temperature;BME280_humidity;BME280_pressure;Samples;Min_cycle;Max_cycle;Signal;HPM_P1;HPM_P2
2021/01/30 00:00:42;;;;;;;11.53;10.93;;;6.80;99.90;;;;;;5025712;28;20204;-78
2021/01/30 00:03:09;;;;;;;11.53;10.93;;;6.80;99.90;;;;;;5021468;28;20733;-78
2021/01/30 00:05:36;;;;;;;12.20;11.40;;;6.80;99.90;;;;;;5024361;28;20198;-78
2021/01/30 00:08:03;;;;;;;11.50;10.80;;;6.80;99.90;;;;;;5041022;28;20213;-78
2021/01/30 00:10:29;;;;;;;11.53;10.93;;;6.80;99.90;;;;;;5038780;28;20204;-78
2021/01/30 00:12:56;;;;;;;11.60;11.00;;;6.80;99.90;;;;;;5022051;28;20195;-79
2021/01/30 00:15:24;;;;;;;11.60;10.97;;;6.80;99.90;;;;;;5041138;28;20195;-78
2021/01/30 00:17:53;;;;;;;11.50;10.90;;;6.80;99.90;;;;;;5026330;28;20219;-78
2021/01/30 00:20:22;;;;;;;11.40;10.80;;;6.80;99.90;;;;;;5039571;28;20201;-78
2021/01/30 00:22:49;;;;;;;11.30;10.70;;;6.70;99.90;;;;;;5037576;28;20220;-78
2021/01/30 00:25:16;;;;;;;11.10;10.50;;;6.70;99.90;;;;;;5024538;28;20254;-79
2021/01/30 00:27:42;;;;;;;11.50;10.80;;;6.70;99.90;;;;;;5040420;28;20212;-78
2021/01/30 00:30:12;;;;;;;11.20;10.60;;;6.70;99.90;;;;;;5041699;28;20262;-78
2021/01/30 00:32:39;;;;;;;11.40;10.80;;;6.70;99.90;;;;;;5021043;28;20199;-78
2021/01/30 00:35:06;;;;;;;11.27;10.57;;;6.70;99.90;;;;;;5036576;28;20227;-78
2021/01/30 00:37:33;;;;;;;11.20;10.60;;;6.70;99.90;;;;;;5039803;28;20212;-78
2021/01/30 00:39:59;;;;;;;11.50;10.80;;;6.70;99.90;;;;;;5039952;28;20208;-78
2021/01/30 00:42:26;;;;;;;11.27;10.67;;;6.70;99.90;;;;;;5043248;28;20207;-78
2021/01/30 00:44:54;;;;;;;11.60;11.00;;;6.70;99.90;;;;;;5018563;28;20701;-79
2021/01/30 00:47:20;;;;;;;11.50;10.90;;;6.70;99.90;;;;;;5019204;28;20232;-78
2021/01/30 00:49:48;;;;;;;11.67;11.07;;;6.70;99.90;;;;;;5017122;28;20204;-78
2021/01/30 00:52:17;;;;;;;11.30;10.70;;;6.70;99.90;;;;;;5038856;28;20227;-77
2021/01/30 00:54:52;;;;;;;10.90;10.30;;;6.70;99.90;;;;;;5022403;28;20187;-78
2021/01/30 00:57:19;;;;;;;11.00;10.33;;;6.70;99.90;;;;;;5016452;28;20604;-78
2021/01/30 00:59:46;;;;;;;11.27;10.67;;;6.70;99.90;;;;;;5018157;28;20227;-79
2021/01/30 01:02:13;;;;;;;11.40;10.80;;;6.70;99.90;;;;;;5020421;28;20223;-78
2021/01/30 01:04:45;;;;;;;11.10;10.50;;;6.70;99.90;;;;;;5025403;28;20249;-78
2021/01/30 01:07:13;;;;;;;11.13;10.43;;;6.70;99.90;;;;;;5015228;28;20224;-78
2021/01/30 01:09:40;;;;;;;11.13;10.43;;;6.70;99.90;;;;;;5023111;28;20195;-79
2021/01/30 01:12:07;;;;;;;10.90;10.20;;;6.70;99.90;;;;;;5022771;28;20204;-78
2021/01/30 01:14:33;;;;;;;11.00;10.37;;;6.70;99.90;;;;;;5023984;28;20688;-78
2021/01/30 01:17:00;;;;;;;11.33;10.70;;;6.70;99.90;;;;;;5041490;28;20211;-78
2021/01/30 01:19:26;;;;;;;11.20;10.60;;;6.70;99.90;;;;;;5018106;28;20526;-79
2021/01/30 01:21:52;;;;;;;10.73;10.13;;;6.70;99.90;;;;;;5018972;28;20216;-78
2021/01/30 01:24:21;;;;;;;11.03;10.33;;;6.70;99.90;;;;;;5039768;28;20189;-78
2021/01/30 01:26:50;;;;;;;11.00;10.40;;;6.70;99.90;;;;;;5023609;28;20212;-78
2021/01/30 01:29:19;;;;;;;11.30;10.60;;;6.60;99.90;;;;;;5027432;28;20254;-79
2021/01/30 01:31:49;;;;;;;10.50;10.00;;;6.60;99.90;;;;;;5022819;28;20200;-78
2021/01/30 01:34:16;;;;;;;10.87;10.13;;;6.60;99.90;;;;;;5024760;28;20203;-78
2021/01/30 01:36:42;;;;;;;10.47;9.87;;;6.50;99.90;;;;;;5026027;28;20219;-78
2021/01/30 01:39:08;;;;;;;10.80;10.20;;;6.50;99.90;;;;;;5040309;28;20207;-78
2021/01/30 01:41:35;;;;;;;10.80;10.20;;;6.50;99.90;;;;;;5026472;28;20207;-79
2021/01/30 01:44:02;;;;;;;10.50;10.00;;;6.50;99.90;;;;;;5025634;28;20232;-78
2021/01/30 01:46:30;;;;;;;10.77;10.17;;;6.50;99.90;;;;;;5024567;28;20777;-79
2021/01/30 01:49:01;;;;;;;10.87;10.27;;;6.50;99.90;;;;;;5042864;28;20192;-78
2021/01/30 01:51:41;;;;;;;11.03;10.43;;;6.50;99.90;;;;;;5052369;28;20192;-78
2021/01/30 01:54:15;;;;;;;11.10;10.40;;;6.40;99.90;;;;;;5045873;28;20625;-78
2021/01/30 01:56:42;;;;;;;11.00;10.40;;;6.50;99.90;;;;;;5048897;28;20218;-78
2021/01/30 01:59:13;;;;;;;11.50;10.80;;;6.50;99.90;;;;;;5028825;28;20195;-79
2021/01/30 02:01:39;;;;;;;11.50;10.90;;;6.50;99.90;;;;;;5043103;28;20200;-78
2021/01/30 02:04:08;;;;;;;11.47;10.77;;;6.50;99.90;;;;;;5045685;28;20201;-79
2021/01/30 02:06:45;;;;;;;11.17;10.57;;;6.50;99.90;;;;;;5024803;28;20215;-78
2021/01/30 02:09:13;;;;;;;11.40;10.80;;;6.50;99.90;;;;;;5039032;28;20196;-79
2021/01/30 02:11:41;;;;;;;11.70;11.10;;;6.40;99.90;;;;;;5022328;28;20201;-79
2021/01/30 02:14:10;;;;;;;11.20;10.60;;;6.30;99.90;;;;;;5041311;28;20258;-78
2021/01/30 02:16:44;;;;;;;11.13;10.53;;;6.20;99.90;;;;;;5045436;28;20753;-78
2021/01/30 02:19:55;;;;;;;11.67;11.00;;;6.10;99.90;;;;;;5025912;28;20672;-78
2021/01/30 02:22:51;;;;;;;12.00;11.30;;;6.10;99.90;;;;;;5028371;28;20216;-79
2021/01/30 02:25:51;;;;;;;12.17;11.37;;;6.10;99.90;;;;;;5041588;28;20203;-78
2021/01/30 02:28:26;;;;;;;11.60;11.00;;;6.10;99.90;;;;;;5006309;28;20324;-78
2021/01/30 02:31:19;;;;;;;11.90;11.30;;;6.20;99.90;;;;;;5020151;28;20200;-78
2021/01/30 02:34:06;;;;;;;11.83;11.23;;;6.30;99.90;;;;;;5035633;28;20228;-78
2021/01/30 02:36:40;;;;;;;11.60;10.80;;;6.30;99.90;;;;;;5043410;28;20229;-78
2021/01/30 02:39:14;;;;;;;12.03;11.33;;;6.30;99.90;;;;;;5041375;28;20188;-79
2021/01/30 02:41:47;;;;;;;11.80;11.20;;;6.30;99.90;;;;;;5017992;28;20211;-78
2021/01/30 02:44:16;;;;;;;11.83;11.13;;;6.20;99.90;;;;;;5025790;28;20192;-78
2021/01/30 02:46:47;;;;;;;12.23;11.53;;;6.10;99.90;;;;;;5081061;22;20224;-78
2021/01/30 02:49:20;;;;;;;12.20;11.50;;;6.10;99.90;;;;;;5086409;28;20252;-78
2021/01/30 02:51:54;;;;;;;11.83;11.10;;;6.10;99.90;;;;;;5084749;28;20195;-78
2021/01/30 02:54:21;;;;;;;11.80;11.20;;;6.10;99.90;;;;;;5090194;28;20194;-79
2021/01/30 02:56:52;;;;;;;11.70;11.10;;;6.20;99.90;;;;;;5086639;28;20254;-79
2021/01/30 02:59:21;;;;;;;11.53;10.93;;;6.20;99.90;;;;;;5085008;28;20198;-79
2021/01/30 03:01:48;;;;;;;12.07;11.37;;;6.20;99.90;;;;;;5087373;28;20713;-79
2021/01/30 03:04:17;;;;;;;12.10;11.30;;;6.30;99.90;;;;;;5086412;28;20721;-78
2021/01/30 03:06:55;;;;;;;11.60;11.00;;;6.30;99.90;;;;;;5086794;28;20214;-78
2021/01/30 03:09:30;;;;;;;11.90;11.20;;;6.30;99.90;;;;;;5084185;28;20195;-79
2021/01/30 03:12:05;;;;;;;12.13;11.43;;;6.30;99.90;;;;;;5085421;28;20193;-78
2021/01/30 03:14:34;;;;;;;10.67;10.17;;;6.40;99.90;;;;;;5081922;28;20224;-78
2021/01/30 03:17:03;;;;;;;11.70;11.00;;;6.40;99.90;;;;;;5087350;28;20698;-79
2021/01/30 03:19:32;;;;;;;12.00;11.30;;;6.40;99.90;;;;;;5111105;28;20643;-78
2021/01/30 03:22:04;;;;;;;11.63;11.03;;;6.40;99.90;;;;;;5086497;28;20206;-79
2021/01/30 03:24:31;;;;;;;11.83;11.23;;;6.40;99.90;;;;;;5084269;28;20209;-79
2021/01/30 03:26:57;;;;;;;11.93;11.13;;;6.40;99.90;;;;;;5085473;28;20641;-78
2021/01/30 03:29:24;;;;;;;11.80;11.10;;;6.40;99.90;;;;;;5092527;28;20228;-78
2021/01/30 03:31:50;;;;;;;11.70;11.10;;;6.40;99.90;;;;;;5085257;28;20259;-79
2021/01/30 03:34:17;;;;;;;11.80;11.20;;;6.40;99.90;;;;;;5085439;28;20198;-78
2021/01/30 03:36:44;;;;;;;11.80;11.10;;;6.40;99.90;;;;;;5084921;28;20268;-79
2021/01/30 03:39:18;;;;;;;11.30;10.70;;;6.40;99.90;;;;;;5083387;28;20201;-78
2021/01/30 03:41:45;;;;;;;11.53;10.90;;;6.40;99.90;;;;;;5084366;28;20735;-78
2021/01/30 03:44:14;;;;;;;11.63;11.03;;;6.40;99.90;;;;;;5081878;28;20206;-78
2021/01/30 03:46:40;;;;;;;11.40;10.80;;;6.40;99.90;;;;;;5087360;28;20211;-76
2021/01/30 03:49:07;;;;;;;11.60;11.00;;;6.40;99.90;;;;;;5091614;28;20190;-77
2021/01/30 03:51:33;;;;;;;11.70;11.10;;;6.40;99.90;;;;;;5109958;28;20190;-76
2021/01/30 03:53:59;;;;;;;11.50;10.90;;;6.40;99.90;;;;;;5081905;28;20747;-76
2021/01/30 03:56:26;;;;;;;11.27;10.67;;;6.50;99.90;;;;;;5092932;28;20204;-75
2021/01/30 03:58:53;;;;;;;11.30;10.70;;;6.40;99.90;;;;;;5082811;28;20186;-76
2021/01/30 04:01:19;;;;;;;11.30;10.70;;;6.50;99.90;;;;;;5088091;28;20255;-82
2021/01/30 04:03:47;;;;;;;11.23;10.63;;;6.50;99.90;;;;;;5090547;28;20582;-78
2021/01/30 04:06:14;;;;;;;11.07;10.47;;;6.50;99.90;;;;;;5098483;28;20202;-78
2021/01/30 04:08:40;;;;;;;11.57;10.97;;;6.50;99.90;;;;;;5084660;28;20203;-79
2021/01/30 04:11:07;;;;;;;11.57;10.90;;;6.50;99.90;;;;;;5085118;28;20199;-78
2021/01/30 04:13:34;;;;;;;11.60;11.00;;;6.50;99.90;;;;;;5086763;28;20193;-78
2021/01/30 04:16:01;;;;;;;11.23;10.53;;;6.50;99.90;;;;;;5090259;28;20259;-80
2021/01/30 04:18:27;;;;;;;11.50;10.90;;;6.50;99.90;;;;;;5086893;28;20300;-78
2021/01/30 04:20:53;;;;;;;11.27;10.67;;;6.50;99.90;;;;;;5094510;28;20199;-79
2021/01/30 04:23:20;;;;;;;11.47;10.87;;;6.50;99.90;;;;;;5085779;28;20884;-78
2021/01/30 04:25:46;;;;;;;11.57;10.97;;;6.50;99.90;;;;;;5096731;28;20202;-78
2021/01/30 04:28:12;;;;;;;12.17;11.30;;;6.50;99.90;;;;;;5086560;28;20222;-77
2021/01/30 04:30:39;;;;;;;12.20;11.50;;;6.50;99.90;;;;;;5094694;28;20581;-80
2021/01/30 04:33:06;;;;;;;12.57;11.60;;;6.40;99.90;;;;;;5089812;28;20191;-78
2021/01/30 04:35:36;;;;;;;11.90;11.10;;;6.40;99.90;;;;;;5089552;28;20205;-78
2021/01/30 04:38:04;;;;;;;11.90;11.20;;;6.40;99.90;;;;;;5091515;28;20221;-79
2021/01/30 04:40:34;;;;;;;11.87;11.07;;;6.40;99.90;;;;;;5087842;28;20662;-77
2021/01/30 04:43:11;;;;;;;11.70;11.00;;;6.40;99.90;;;;;;5089853;28;20210;-79
2021/01/30 04:45:50;;;;;;;12.07;11.23;;;6.40;99.90;;;;;;5090349;28;20193;-78
2021/01/30 04:48:27;;;;;;;12.40;11.70;;;6.40;99.90;;;;;;5087782;28;20229;-78
2021/01/30 04:51:02;;;;;;;11.90;11.20;;;6.40;99.90;;;;;;5082038;28;20190;-80
2021/01/30 04:53:48;;;;;;;11.73;10.90;;;6.40;99.90;;;;;;5086184;28;20194;-77
2021/01/30 04:56:19;;;;;;;11.10;10.50;;;6.40;99.90;;;;;;5084859;28;20701;-76
2021/01/30 04:58:54;;;;;;;11.10;10.40;;;6.40;99.90;;;;;;5084945;28;20208;-77
2021/01/30 05:01:29;;;;;;;12.37;11.57;;;6.40;99.90;;;;;;5088453;28;20247;-77
2021/01/30 05:04:09;;;;;;;11.90;11.20;;;6.40;99.90;;;;;;5090262;28;20818;-76
2021/01/30 05:06:57;;;;;;;11.70;10.90;;;6.40;99.90;;;;;;5084100;28;20258;-76
2021/01/30 05:09:30;;;;;;;11.50;10.83;;;6.40;99.90;;;;;;5085234;28;20205;-77
2021/01/30 05:12:05;;;;;;;11.10;10.50;;;6.40;99.90;;;;;;5084359;28;20202;-77
2021/01/30 05:14:38;;;;;;;11.40;10.70;;;6.40;99.90;;;;;;5086397;28;20193;-77
2021/01/30 05:17:11;;;;;;;11.63;10.90;;;6.30;99.90;;;;;;5084889;28;20225;-77
2021/01/30 05:19:41;;;;;;;11.50;10.80;;;6.30;99.90;;;;;;5091098;28;20187;-77
2021/01/30 05:22:11;;;;;;;11.57;10.77;;;6.30;99.90;;;;;;5094821;28;20213;-79
2021/01/30 05:24:38;;;;;;;11.43;10.67;;;6.30;99.90;;;;;;5096604;28;20190;-77
2021/01/30 05:27:25;;;;;;;11.67;10.77;;;6.30;99.90;;;;;;5101215;28;20218;-79
2021/01/30 05:30:02;;;;;;;11.43;10.77;;;6.30;99.90;;;;;;5094604;28;20205;-77
2021/01/30 05:32:37;;;;;;;11.80;11.00;;;6.20;99.90;;;;;;5094782;28;20185;-78
2021/01/30 05:35:08;;;;;;;12.00;11.00;;;6.20;99.90;;;;;;5093590;28;20231;-76
2021/01/30 05:37:39;;;;;;;11.63;10.80;;;6.20;99.90;;;;;;5093293;28;20271;-76
2021/01/30 05:40:37;;;;;;;12.40;11.33;;;6.10;99.90;;;;;;5095923;28;20198;-75
2021/01/30 05:43:14;;;;;;;11.90;11.10;;;6.10;99.90;;;;;;5075115;28;20225;-76
2021/01/30 05:45:44;;;;;;;12.50;11.50;;;6.10;99.90;;;;;;5092354;28;20681;-77
2021/01/30 05:48:15;;;;;;;11.60;10.90;;;6.10;99.90;;;;;;5093230;28;20253;-76
2021/01/30 05:50:47;;;;;;;11.73;10.93;;;6.10;99.90;;;;;;5085323;28;20198;-78
2021/01/30 05:53:18;;;;;;;12.23;11.13;;;6.10;99.90;;;;;;5079713;28;20202;-78
2021/01/30 05:55:44;;;;;;;12.03;11.13;;;6.10;99.90;;;;;;5093811;28;20198;-76
2021/01/30 05:58:14;;;;;;;11.97;11.00;;;6.10;99.90;;;;;;5103801;28;20229;-76
2021/01/30 06:00:41;;;;;;;12.50;11.47;;;6.10;99.90;;;;;;5086884;28;20213;-77
2021/01/30 06:03:11;;;;;;;11.47;10.87;;;6.10;99.90;;;;;;5092885;28;20304;-77
2021/01/30 06:05:40;;;;;;;11.97;11.10;;;6.10;99.90;;;;;;5078039;28;20191;-77
2021/01/30 06:08:22;;;;;;;12.20;11.20;;;6.10;99.90;;;;;;5097178;28;20218;-77
2021/01/30 06:10:52;;;;;;;12.00;11.20;;;6.00;99.90;;;;;;5086120;28;20205;-76
2021/01/30 06:13:20;;;;;;;12.37;11.50;;;6.00;99.90;;;;;;5109637;28;20209;-76
2021/01/30 06:15:49;;;;;;;11.60;10.90;;;6.00;99.90;;;;;;5091841;28;20190;-77
2021/01/30 06:18:27;;;;;;;12.10;11.30;;;6.00;99.90;;;;;;5105036;28;20222;-78
2021/01/30 06:20:59;;;;;;;12.30;11.53;;;6.00;99.90;;;;;;5088326;28;20194;-77
2021/01/30 06:23:26;;;;;;;12.47;11.67;;;5.90;99.90;;;;;;5078870;28;20217;-76
2021/01/30 06:25:53;;;;;;;12.00;11.17;;;5.90;99.90;;;;;;5083280;28;20288;-76
2021/01/30 06:28:24;;;;;;;12.20;11.20;;;6.00;99.90;;;;;;5079498;28;20588;-76
2021/01/30 06:30:51;;;;;;;12.00;11.20;;;6.00;99.90;;;;;;5084890;28;20198;-76
2021/01/30 06:33:27;;;;;;;12.53;11.50;;;6.00;99.90;;;;;;5090592;28;20198;-76
2021/01/30 06:35:57;;;;;;;12.50;11.60;;;6.00;99.90;;;;;;5085144;28;20189;-76
2021/01/30 06:38:31;;;;;;;12.27;11.50;;;6.00;99.90;;;;;;5088099;28;20701;-76
2021/01/30 06:41:01;;;;;;;12.60;11.60;;;6.00;99.90;;;;;;5085256;28;20489;-77
2021/01/30 06:43:30;;;;;;;12.10;11.20;;;6.00;99.90;;;;;;5087100;28;20214;-76
2021/01/30 06:46:08;;;;;;;12.90;11.70;;;6.00;99.90;;;;;;5092264;28;20209;-77
2021/01/30 06:48:38;;;;;;;12.80;11.90;;;6.00;99.90;;;;;;5082739;28;20589;-76
2021/01/30 06:51:21;;;;;;;12.97;11.87;;;6.00;99.90;;;;;;5082286;28;20203;-76
2021/01/30 06:53:48;;;;;;;13.23;12.33;;;6.00;99.90;;;;;;5089304;28;20193;-79
2021/01/30 06:56:18;;;;;;;13.93;12.67;;;6.00;99.90;;;;;;5096666;28;20206;-75
2021/01/30 06:58:45;;;;;;;12.43;11.53;;;6.10;99.90;;;;;;5096728;28;20224;-76
2021/01/30 07:01:15;;;;;;;13.10;11.97;;;6.10;99.90;;;;;;5092801;28;20210;-77
2021/01/30 07:03:54;;;;;;;13.37;12.33;;;6.10;99.90;;;;;;5104526;28;20262;-77
2021/01/30 07:06:27;;;;;;;13.03;11.93;;;6.10;99.90;;;;;;5090526;28;20197;-76
2021/01/30 07:09:13;;;;;;;12.73;11.73;;;6.10;99.90;;;;;;5101928;28;20224;-77
2021/01/30 07:11:55;;;;;;;12.47;11.53;;;6.10;99.90;;;;;;5086596;28;20237;-76
2021/01/30 07:14:35;;;;;;;12.27;11.47;;;6.10;99.90;;;;;;5092682;28;20231;-76
2021/01/30 07:17:07;;;;;;;12.70;11.57;;;6.10;99.90;;;;;;5088809;28;20287;-77
2021/01/30 07:19:47;;;;;;;13.53;12.13;;;6.10;99.90;;;;;;5084697;28;20198;-76
2021/01/30 07:22:20;;;;;;;12.20;11.20;;;6.20;99.90;;;;;;5084681;28;20256;-77
2021/01/30 07:24:51;;;;;;;12.57;11.77;;;6.20;99.90;;;;;;5087539;28;20201;-77
2021/01/30 07:27:25;;;;;;;12.50;11.60;;;6.20;99.90;;;;;;5084244;28;20245;-77
2021/01/30 07:29:59;;;;;;;13.13;11.97;;;6.20;99.90;;;;;;5080905;28;20199;-77
2021/01/30 07:32:31;;;;;;;12.97;11.90;;;6.20;99.90;;;;;;5086511;28;20191;-77
2021/01/30 07:35:06;;;;;;;12.43;11.33;;;6.30;99.90;;;;;;5080649;28;20195;-77
2021/01/30 07:37:44;;;;;;;13.97;12.90;;;6.20;99.90;;;;;;5086725;28;20210;-76
2021/01/30 07:40:15;;;;;;;15.90;12.70;;;6.30;99.90;;;;;;5082651;28;20210;-77
2021/01/30 07:42:48;;;;;;;12.57;11.67;;;6.30;99.90;;;;;;5090209;28;20210;-80
2021/01/30 07:45:19;;;;;;;13.33;12.13;;;6.30;99.90;;;;;;5087222;28;20208;-79
2021/01/30 07:47:52;;;;;;;12.70;11.73;;;6.30;99.90;;;;;;5087376;28;20229;-77
2021/01/30 07:50:24;;;;;;;12.40;11.57;;;6.40;99.90;;;;;;5089308;28;20231;-83
2021/01/30 07:53:03;;;;;;;12.90;12.00;;;6.40;99.90;;;;;;5085879;28;20224;-78
2021/01/30 07:55:30;;;;;;;11.83;11.03;;;6.40;99.90;;;;;;5086893;28;20191;-77
2021/01/30 07:58:27;;;;;;;12.70;11.70;;;6.50;99.90;;;;;;5087021;28;20225;-78
2021/01/30 08:01:03;;;;;;;12.67;11.87;;;6.50;99.90;;;;;;5087432;28;20201;-78
2021/01/30 08:03:56;;;;;;;13.30;11.90;;;6.60;99.90;;;;;;5097266;28;20635;-78
2021/01/30 08:06:39;;;;;;;11.33;10.63;;;6.70;99.90;;;;;;5088750;28;20214;-78
2021/01/30 08:09:16;;;;;;;12.43;11.53;;;6.80;99.90;;;;;;5085534;28;20278;-79
2021/01/30 08:11:50;;;;;;;11.70;10.90;;;6.80;99.90;;;;;;5078154;28;20261;-78
2021/01/30 08:14:36;;;;;;;12.47;11.57;;;6.90;99.90;;;;;;5080079;28;20206;-77
2021/01/30 08:17:08;;;;;;;6.00;5.40;;;7.00;99.90;;;;;;5082824;28;20214;-78
2021/01/30 08:19:43;;;;;;;7.10;6.50;;;7.00;99.90;;;;;;5100714;28;20260;-75
2021/01/30 08:22:17;;;;;;;13.23;11.63;;;7.00;99.90;;;;;;5090036;28;20222;-76
2021/01/30 08:24:51;;;;;;;12.37;11.27;;;7.00;99.90;;;;;;5091504;28;20205;-77
2021/01/30 08:27:23;;;;;;;12.60;11.60;;;7.00;99.90;;;;;;5086019;28;20214;-77
2021/01/30 08:29:54;;;;;;;14.10;12.70;;;7.00;99.90;;;;;;5079193;28;20203;-82
2021/01/30 08:32:52;;;;;;;11.63;10.83;;;7.00;99.90;;;;;;5085622;28;20198;-81
2021/01/30 08:35:45;;;;;;;12.90;11.80;;;7.00;99.90;;;;;;5080345;28;20195;-78
2021/01/30 08:38:31;;;;;;;11.43;10.67;;;7.00;99.90;;;;;;5082753;28;20222;-77
2021/01/30 08:41:10;;;;;;;11.93;10.83;;;7.00;99.90;;;;;;5085146;28;20259;-78
2021/01/30 08:43:40;;;;;;;12.20;11.03;;;7.10;99.90;;;;;;5082422;28;20218;-78
2021/01/30 08:46:32;;;;;;;11.90;11.00;;;7.10;99.90;;;;;;5084606;28;20198;-79
2021/01/30 08:49:21;;;;;;;11.83;10.73;;;7.10;99.90;;;;;;5092254;28;20262;-78
2021/01/30 08:51:50;;;;;;;11.50;10.40;;;7.10;99.90;;;;;;5098987;28;20206;-78
2021/01/30 08:54:36;;;;;;;11.67;10.77;;;7.10;99.90;;;;;;5082113;28;20634;-78
2021/01/30 08:57:05;;;;;;;11.40;10.50;;;7.10;99.90;;;;;;5078416;28;20229;-77
2021/01/30 08:59:46;;;;;;;11.30;10.50;;;7.20;99.90;;;;;;5081627;28;20268;-78
2021/01/30 09:02:47;;;;;;;12.80;12.00;;;7.20;99.90;;;;;;5080993;28;20211;-78
2021/01/30 09:05:41;;;;;;;12.27;11.17;;;7.20;99.90;;;;;;5081659;28;20729;-78
2021/01/30 09:08:41;;;;;;;11.00;10.30;;;7.30;99.90;;;;;;5079456;28;20227;-78
2021/01/30 09:11:36;;;;;;;12.50;11.50;;;7.40;99.90;;;;;;5081774;28;20233;-78
2021/01/30 09:14:07;;;;;;;11.00;10.30;;;7.50;99.90;;;;;;5087120;28;20190;-78
2021/01/30 09:16:44;;;;;;;6.97;6.37;;;7.50;99.90;;;;;;5079760;28;20215;-78
2021/01/30 09:19:21;;;;;;;12.63;11.47;;;7.60;99.90;;;;;;5085350;28;20271;-78
2021/01/30 09:22:05;;;;;;;12.47;11.30;;;7.60;99.90;;;;;;5083162;28;20203;-78
2021/01/30 09:24:51;;;;;;;12.93;11.67;;;7.70;99.90;;;;;;5080124;28;20408;-78
2021/01/30 09:27:22;;;;;;;13.33;12.23;;;7.70;99.90;;;;;;5085073;28;20231;-79
2021/01/30 09:29:51;;;;;;;11.80;10.90;;;7.70;99.90;;;;;;5089076;28;20813;-78
2021/01/30 09:32:24;;;;;;;11.87;11.13;;;7.80;99.90;;;;;;5083075;28;20727;-78
2021/01/30 09:34:56;;;;;;;11.77;10.87;;;7.90;99.90;;;;;;5087634;28;20585;-78
2021/01/30 09:37:37;;;;;;;11.73;10.80;;;7.90;99.90;;;;;;5092848;28;20228;-78
2021/01/30 09:40:07;;;;;;;11.43;10.77;;;8.00;99.90;;;;;;5091314;28;20575;-78
2021/01/30 09:42:33;;;;;;;12.03;11.20;;;8.00;99.90;;;;;;5076106;28;20220;-79
2021/01/30 09:45:03;;;;;;;12.80;11.63;;;8.00;99.90;;;;;;5086253;28;20201;-79
2021/01/30 09:47:30;;;;;;;12.07;11.07;;;8.00;99.90;;;;;;5091288;28;20231;-78
2021/01/30 09:49:59;;;;;;;11.60;10.70;;;8.10;99.90;;;;;;5095672;28;20226;-79
2021/01/30 09:52:25;;;;;;;11.57;10.67;;;8.10;99.90;;;;;;5094486;28;20204;-78
2021/01/30 09:54:55;;;;;;;12.10;11.10;;;8.20;99.90;;;;;;5091579;28;20200;-78
2021/01/30 09:57:24;;;;;;;12.60;11.50;;;8.30;99.90;;;;;;5093384;28;20216;-79
2021/01/30 09:59:55;;;;;;;12.00;11.10;;;8.30;99.90;;;;;;5091022;28;20201;-78
2021/01/30 10:02:23;;;;;;;12.37;11.43;;;8.30;99.90;;;;;;5091040;28;20293;-79
2021/01/30 10:05:01;;;;;;;11.57;10.67;;;8.30;99.90;;;;;;5091185;28;20253;-79
2021/01/30 10:07:28;;;;;;;12.50;11.60;;;8.30;99.90;;;;;;5094523;28;20216;-77
2021/01/30 10:09:55;;;;;;;12.00;11.10;;;8.30;99.90;;;;;;5104548;28;20205;-76
2021/01/30 10:12:23;;;;;;;11.77;10.93;;;8.30;99.90;;;;;;5086885;28;20216;-77
2021/01/30 10:14:52;;;;;;;12.13;11.23;;;8.40;99.90;;;;;;5098197;28;20196;-76
2021/01/30 10:17:22;;;;;;;12.17;11.27;;;8.40;99.90;;;;;;5097461;28;20221;-77
2021/01/30 10:19:57;;;;;;;11.50;10.70;;;8.50;99.90;;;;;;5101885;28;20230;-77
2021/01/30 10:22:32;;;;;;;11.30;10.50;;;8.60;99.90;;;;;;5088908;28;20712;-76
2021/01/30 10:25:03;;;;;;;11.90;10.77;;;8.70;99.90;;;;;;5083322;28;20658;-76
2021/01/30 10:27:30;;;;;;;12.50;11.20;;;8.70;99.90;;;;;;5103537;28;20221;-76
2021/01/30 10:29:58;;;;;;;11.73;10.63;;;8.80;99.90;;;;;;5078669;28;20222;-76
2021/01/30 10:32:36;;;;;;;11.50;10.60;;;8.90;99.90;;;;;;5081274;28;20626;-77
2021/01/30 10:35:05;;;;;;;11.43;10.40;;;8.90;99.90;;;;;;5080929;28;20248;-76
2021/01/30 10:37:39;;;;;;;11.00;10.20;;;8.90;99.90;;;;;;5080305;28;20717;-76
2021/01/30 10:40:11;;;;;;;11.53;10.50;;;8.90;99.90;;;;;;5086949;28;20265;-76
2021/01/30 10:42:39;;;;;;;12.23;11.23;;;8.90;99.90;;;;;;5082970;28;20223;-76
2021/01/30 10:45:15;;;;;;;11.77;10.83;;;8.80;99.90;;;;;;5083201;28;20661;-76
2021/01/30 10:47:42;;;;;;;11.60;10.80;;;8.80;99.90;;;;;;5077063;28;20231;-77
2021/01/30 10:50:15;;;;;;;11.97;10.90;;;8.80;99.90;;;;;;5089887;28;20714;-75
2021/01/30 10:52:41;;;;;;;11.67;10.77;;;8.80;99.90;;;;;;5083730;28;20659;-75
2021/01/30 10:55:40;;;;;;;11.73;10.83;;;8.80;99.90;;;;;;5076607;28;20217;-74
2021/01/30 10:58:13;;;;;;;11.50;10.60;;;8.90;99.90;;;;;;5041016;28;20261;-77
2021/01/30 11:00:40;;;;;;;11.67;10.73;;;8.90;99.90;;;;;;5083219;28;20208;-78
2021/01/30 11:03:20;;;;;;;12.27;10.77;;;9.00;99.90;;;;;;5084802;28;20598;-81
2021/01/30 11:05:47;;;;;;;11.30;10.40;;;9.00;99.90;;;;;;5084819;28;20189;-78
2021/01/30 11:08:29;;;;;;;12.77;11.70;;;9.10;99.90;;;;;;5090866;28;20299;-78
2021/01/30 11:11:05;;;;;;;13.40;12.30;;;9.10;99.90;;;;;;5086496;28;20693;-79
2021/01/30 11:13:35;;;;;;;13.10;12.00;;;9.20;99.90;;;;;;5097282;28;20194;-77
2021/01/30 11:16:10;;;;;;;12.90;11.60;;;9.30;99.90;;;;;;5090208;28;20201;-78
2021/01/30 11:18:40;;;;;;;12.03;11.03;;;9.30;99.90;;;;;;5081345;28;20205;-78
2021/01/30 11:21:10;;;;;;;11.80;10.80;;;9.30;99.90;;;;;;5088521;28;20201;-79
2021/01/30 11:23:41;;;;;;;11.90;10.87;;;9.30;99.90;;;;;;5083831;28;20293;-76
2021/01/30 11:26:19;;;;;;;10.97;10.20;;;9.30;99.90;;;;;;5087082;28;20209;-79
2021/01/30 11:28:46;;;;;;;11.30;10.40;;;9.20;99.90;;;;;;5076875;28;20209;-78
2021/01/30 11:31:14;;;;;;;10.47;9.77;;;9.10;99.90;;;;;;5082323;28;20670;-80
2021/01/30 11:33:40;;;;;;;10.20;9.50;;;9.10;99.90;;;;;;5084392;28;20194;-81
2021/01/30 11:36:10;;;;;;;10.50;9.80;;;9.10;99.90;;;;;;5079510;28;20201;-79
2021/01/30 11:38:37;;;;;;;10.90;10.20;;;9.00;99.90;;;;;;5080628;28;20221;-78
2021/01/30 11:41:03;;;;;;;11.43;10.60;;;9.00;99.90;;;;;;5077371;28;20198;-78
2021/01/30 11:43:30;;;;;;;11.07;10.37;;;9.00;99.90;;;;;;5078750;28;20236;-78
2021/01/30 11:45:57;;;;;;;12.07;11.17;;;9.00;99.90;;;;;;5075798;28;20236;-78
2021/01/30 11:48:24;;;;;;;11.83;11.03;;;9.00;99.90;;;;;;5079680;28;20253;-77
2021/01/30 11:50:51;;;;;;;11.23;10.53;;;8.90;99.90;;;;;;5086596;28;20193;-78
2021/01/30 11:53:19;;;;;;;11.53;10.80;;;8.90;99.90;;;;;;5084044;28;20193;-76
2021/01/30 11:55:46;;;;;;;12.50;11.60;;;8.90;99.90;;;;;;5082584;28;20264;-78
2021/01/30 11:58:14;;;;;;;12.27;11.30;;;9.00;99.90;;;;;;5082530;28;20278;-77
2021/01/30 12:00:41;;;;;;;11.97;11.00;;;8.90;99.90;;;;;;5082716;28;20198;-76
2021/01/30 12:03:19;;;;;;;12.47;11.53;;;9.00;99.90;;;;;;5090798;28;20259;-76
2021/01/30 12:05:45;;;;;;;12.90;11.73;;;9.00;99.90;;;;;;5081616;28;20206;-77
2021/01/30 12:08:12;;;;;;;12.20;11.30;;;8.90;99.90;;;;;;5089349;28;20662;-77
2021/01/30 12:10:38;;;;;;;11.97;10.87;;;8.90;99.90;;;;;;5092614;28;20731;-76
2021/01/30 12:13:04;;;;;;;12.03;11.13;;;8.80;99.90;;;;;;5105188;28;20198;-77
2021/01/30 12:15:31;;;;;;;11.50;10.70;;;8.70;99.90;;;;;;5087313;28;20507;-77
2021/01/30 12:17:59;;;;;;;11.20;10.40;;;8.60;99.90;;;;;;5097147;28;20238;-78
2021/01/30 12:20:42;;;;;;;10.57;9.87;;;8.60;99.90;;;;;;5082385;28;20225;-77
2021/01/30 12:23:16;;;;;;;10.80;9.93;;;8.50;99.90;;;;;;5082565;28;20717;-78
2021/01/30 12:25:54;;;;;;;11.00;10.20;;;8.40;99.90;;;;;;5086519;28;20221;-78
2021/01/30 12:28:34;;;;;;;10.83;10.03;;;8.40;99.90;;;;;;5081212;28;20226;-77
2021/01/30 12:31:06;;;;;;;10.20;9.50;;;8.40;99.90;;;;;;5079293;28;20201;-78
2021/01/30 12:33:37;;;;;;;10.83;10.03;;;8.30;99.90;;;;;;5082056;28;20189;-78
2021/01/30 12:36:17;;;;;;;12.90;11.80;;;8.30;99.90;;;;;;5079856;28;20226;-80
2021/01/30 12:41:41;;;;;;;12.07;11.27;;;8.10;99.90;;;;;;5097771;28;20207;-77
2021/01/30 12:44:22;;;;;;;11.87;11.07;;;8.10;99.90;;;;;;5081730;28;20292;-77
2021/01/30 12:47:04;;;;;;;11.27;10.47;;;8.10;99.90;;;;;;5088599;28;20609;-79
2021/01/30 12:49:31;;;;;;;11.07;10.33;;;8.00;99.90;;;;;;5099698;28;20253;-77
2021/01/30 12:51:58;;;;;;;10.60;9.87;;;8.00;99.90;;;;;;5079937;28;20207;-75
2021/01/30 12:54:25;;;;;;;11.37;10.67;;;8.00;99.90;;;;;;5094296;28;20193;-78
2021/01/30 12:56:52;;;;;;;11.10;10.30;;;8.00;99.90;;;;;;5090698;28;20276;-76
2021/01/30 12:59:18;;;;;;;10.57;9.97;;;8.00;99.90;;;;;;5090570;28;20200;-76
2021/01/30 13:01:44;;;;;;;10.73;10.03;;;8.00;99.90;;;;;;5090864;28;20196;-76
2021/01/30 13:04:11;;;;;;;10.40;9.70;;;8.00;99.90;;;;;;5089777;28;20216;-77
2021/01/30 13:06:38;;;;;;;11.13;10.13;;;8.00;99.90;;;;;;5096077;28;20222;-76